This is the latest recevied weather packets stored in our database for station/object KB4RFE. If no packets are shown the sender has not sent any weather packets the latest 1 day(s).
| Time | Temp. | Humidity | Pressure | Rain* | Wind** | Luminosity | Snow |
|---|---|---|---|---|---|---|---|
| 1778078417 | 25° C | 72% | 1019.7 hPa | 0 mm | - | 696 W/m² | - |
| 1778077813 | 24.44° C | 73% | 1019.8 hPa | 0 mm | - | 545 W/m² | - |
| 1778077510 | 24.44° C | 74% | 1019.8 hPa | 0 mm | - | 452 W/m² | - |
| 1778074177 | 23.89° C | 74% | 1019.5 hPa | 0 mm | - | 440 W/m² | - |
| 1778073572 | 23.33° C | 77% | 1019.3 hPa | 0 mm | - | 387 W/m² | - |
| 1778072360 | 22.78° C | 79% | 1019.2 hPa | 0 mm | - | 242 W/m² | - |
| 1778071756 | 22.78° C | 80% | 1019.2 hPa | 0 mm | - | 68 W/m² | - |
| 1778071453 | 22.78° C | 79% | 1019.1 hPa | 0 mm | - | 70 W/m² | - |
| 1778069334 | 21.67° C | 84% | 1019.1 hPa | 0 mm | - | 51 W/m² | - |
| 1778069032 | 21.11° C | 85% | 1019.1 hPa | 0 mm | - | 53 W/m² | - |
| 1778067521 | 19.44° C | 96% | 1018.8 hPa | 0 mm | - | 37 W/m² | - |
| 1778067218 | 18.89° C | 97% | 1018.8 hPa | 0 mm | - | 36 W/m² | - |
| 1778065098 | 17.22° C | 95% | 1018.8 hPa | 0.51 mm | - | 19 W/m² | - |
| 1778063585 | 17.22° C | 94% | 1018.8 hPa | 0 mm | - | 5 W/m² | - |
| 1778062980 | 17.22° C | 94% | 1018.5 hPa | 0 mm | - | 1 W/m² | - |
| 1778062677 | 17.22° C | 94% | 1018.5 hPa | 0 mm | - | 1 W/m² | - |
| 1778062373 | 17.22° C | 94% | 1018.5 hPa | 0 mm | - | 0 W/m² | - |
| 1778062071 | 17.22° C | 94% | 1018.6 hPa | 0 mm | - | 0 W/m² | - |
| 1778061769 | 17.22° C | 93% | 1018.4 hPa | 0 mm | - | 0 W/m² | - |
| 1778061164 | 17.22° C | 93% | 1018.6 hPa | 0 mm | - | 0 W/m² | - |
| 1778060559 | 17.78° C | 92% | 1018.6 hPa | 0 mm | - | 0 W/m² | - |
| 1778059954 | 17.78° C | 92% | 1018.3 hPa | 0 mm | - | 0 W/m² | - |
| 1778058744 | 18.33° C | 90% | 1018.5 hPa | 0 mm | - | 0 W/m² | - |
| 1778058138 | 18.33° C | 90% | 1018.5 hPa | 0 mm | - | 0 W/m² | - |
| 1778056319 | 18.89° C | 87% | 1018.5 hPa | 0 mm | - | 0 W/m² | - |
* Rain latest hour (hover to see other rain measurements)
** Current wind speed in m/s (hover to see current wind gust speed)